sensor_id;sensor_type;location;lat;lon;timestamp;temperature;humidity
19544;DHT22;9917;51.256;7.152;2022-07-19T00:06:53;21.20;87.60
19544;DHT22;9917;51.256;7.152;2022-07-19T00:14:12;21.00;82.80
19544;DHT22;9917;51.256;7.152;2022-07-19T00:16:38;20.90;83.20
19544;DHT22;9917;51.256;7.152;2022-07-19T00:31:16;21.20;92.20
19544;DHT22;9917;51.256;7.152;2022-07-19T00:41:01;20.60;89.00
19544;DHT22;9917;51.256;7.152;2022-07-19T00:43:27;20.90;91.40
19544;DHT22;9917;51.256;7.152;2022-07-19T00:45:52;20.40;89.70
19544;DHT22;9917;51.256;7.152;2022-07-19T00:48:20;20.50;89.60
19544;DHT22;9917;51.256;7.152;2022-07-19T00:50:46;20.90;92.60
19544;DHT22;9917;51.256;7.152;2022-07-19T00:55:39;20.50;92.70
19544;DHT22;9917;51.256;7.152;2022-07-19T00:58:06;20.10;92.30
19544;DHT22;9917;51.256;7.152;2022-07-19T01:00:34;21.00;92.80
19544;DHT22;9917;51.256;7.152;2022-07-19T01:03:01;20.30;90.00
19544;DHT22;9917;51.256;7.152;2022-07-19T01:05:28;20.20;90.40
19544;DHT22;9917;51.256;7.152;2022-07-19T01:07:54;20.60;93.70
19544;DHT22;9917;51.256;7.152;2022-07-19T01:15:15;18.90;94.60
19544;DHT22;9917;51.256;7.152;2022-07-19T01:17:41;20.30;92.80
19544;DHT22;9917;51.256;7.152;2022-07-19T01:20:08;19.50;93.20
19544;DHT22;9917;51.256;7.152;2022-07-19T01:22:35;19.80;93.10
19544;DHT22;9917;51.256;7.152;2022-07-19T01:37:11;22.80;94.60
19544;DHT22;9917;51.256;7.152;2022-07-19T01:39:39;19.40;96.80
19544;DHT22;9917;51.256;7.152;2022-07-19T01:42:04;20.50;97.10
19544;DHT22;9917;51.256;7.152;2022-07-19T01:44:30;20.00;97.10
19544;DHT22;9917;51.256;7.152;2022-07-19T01:46:56;19.00;97.40
19544;DHT22;9917;51.256;7.152;2022-07-19T01:54:14;19.90;97.60
19544;DHT22;9917;51.256;7.152;2022-07-19T01:56:43;19.60;95.30
19544;DHT22;9917;51.256;7.152;2022-07-19T02:06:27;19.60;98.00
19544;DHT22;9917;51.256;7.152;2022-07-19T02:08:53;19.40;97.70
19544;DHT22;9917;51.256;7.152;2022-07-19T02:11:18;19.10;97.70
19544;DHT22;9917;51.256;7.152;2022-07-19T02:13:46;19.30;96.10
19544;DHT22;9917;51.256;7.152;2022-07-19T02:21:04;19.20;97.10
19544;DHT22;9917;51.256;7.152;2022-07-19T02:28:22;19.20;98.40
19544;DHT22;9917;51.256;7.152;2022-07-19T02:30:50;19.20;98.20
19544;DHT22;9917;51.256;7.152;2022-07-19T02:35:42;19.10;99.90
19544;DHT22;9917;51.256;7.152;2022-07-19T02:38:08;19.10;99.90
19544;DHT22;9917;51.256;7.152;2022-07-19T02:43:01;19.10;99.90
19544;DHT22;9917;51.256;7.152;2022-07-19T02:47:54;19.10;99.70
19544;DHT22;9917;51.256;7.152;2022-07-19T02:50:20;18.90;99.90
19544;DHT22;9917;51.256;7.152;2022-07-19T02:52:46;19.60;99.90
19544;DHT22;9917;51.256;7.152;2022-07-19T02:55:14;18.90;99.50
19544;DHT22;9917;51.256;7.152;2022-07-19T02:57:39;19.10;99.90
19544;DHT22;9917;51.256;7.152;2022-07-19T03:00:07;18.90;99.90
19544;DHT22;9917;51.256;7.152;2022-07-19T03:05:01;18.90;99.90
19544;DHT22;9917;51.256;7.152;2022-07-19T03:09:54;18.60;99.90
19544;DHT22;9917;51.256;7.152;2022-07-19T03:22:06;18.70;99.90
19544;DHT22;9917;51.256;7.152;2022-07-19T03:26:59;19.30;99.90
19544;DHT22;9917;51.256;7.152;2022-07-19T03:29:25;18.30;99.90
19544;DHT22;9917;51.256;7.152;2022-07-19T03:34:17;18.30;99.90
19544;DHT22;9917;51.256;7.152;2022-07-19T03:39:11;19.30;99.90
19544;DHT22;9917;51.256;7.152;2022-07-19T03:41:36;18.60;99.90
19544;DHT22;9917;51.256;7.152;2022-07-19T03:46:28;18.60;99.90
19544;DHT22;9917;51.256;7.152;2022-07-19T03:56:14;18.80;99.90
19544;DHT22;9917;51.256;7.152;2022-07-19T03:58:40;18.40;99.90
19544;DHT22;9917;51.256;7.152;2022-07-19T04:01:06;18.90;99.90
19544;DHT22;9917;51.256;7.152;2022-07-19T04:03:36;18.70;99.90
19544;DHT22;9917;51.256;7.152;2022-07-19T04:06:02;19.10;99.90
19544;DHT22;9917;51.256;7.152;2022-07-19T04:10:53;18.30;99.90
19544;DHT22;9917;51.256;7.152;2022-07-19T04:13:21;18.60;99.90
19544;DHT22;9917;51.256;7.152;2022-07-19T04:15:47;18.80;99.90
19544;DHT22;9917;51.256;7.152;2022-07-19T04:18:12;18.10;99.90
19544;DHT22;9917;51.256;7.152;2022-07-19T04:20:38;19.10;99.90
19544;DHT22;9917;51.256;7.152;2022-07-19T04:27:57;19.30;99.90
19544;DHT22;9917;51.256;7.152;2022-07-19T04:30:24;18.80;99.90
19544;DHT22;9917;51.256;7.152;2022-07-19T04:32:50;19.50;99.90
19544;DHT22;9917;51.256;7.152;2022-07-19T04:35:16;19.00;99.90
19544;DHT22;9917;51.256;7.152;2022-07-19T04:40:09;19.40;99.90
19544;DHT22;9917;51.256;7.152;2022-07-19T04:42:35;19.60;99.90
19544;DHT22;9917;51.256;7.152;2022-07-19T04:45:01;17.90;99.90
19544;DHT22;9917;51.256;7.152;2022-07-19T04:47:29;19.10;99.90
19544;DHT22;9917;51.256;7.152;2022-07-19T04:49:55;19.70;99.90
19544;DHT22;9917;51.256;7.152;2022-07-19T04:54:47;18.20;99.90
19544;DHT22;9917;51.256;7.152;2022-07-19T04:57:13;19.40;99.90
19544;DHT22;9917;51.256;7.152;2022-07-19T05:02:08;19.10;99.90
19544;DHT22;9917;51.256;7.152;2022-07-19T05:04:35;19.30;99.90
19544;DHT22;9917;51.256;7.152;2022-07-19T05:07:01;19.20;99.90
19544;DHT22;9917;51.256;7.152;2022-07-19T05:09:28;19.40;99.90
19544;DHT22;9917;51.256;7.152;2022-07-19T05:11:54;19.50;99.80
19544;DHT22;9917;51.256;7.152;2022-07-19T05:16:47;20.10;99.30
19544;DHT22;9917;51.256;7.152;2022-07-19T05:19:14;19.90;98.60
19544;DHT22;9917;51.256;7.152;2022-07-19T05:21:41;19.50;99.90
19544;DHT22;9917;51.256;7.152;2022-07-19T05:24:07;20.30;99.10
19544;DHT22;9917;51.256;7.152;2022-07-19T05:26:33;19.90;98.20
19544;DHT22;9917;51.256;7.152;2022-07-19T05:29:00;19.90;97.60
19544;DHT22;9917;51.256;7.152;2022-07-19T05:38:46;20.20;96.90
19544;DHT22;9917;51.256;7.152;2022-07-19T05:41:12;20.80;97.90
19544;DHT22;9917;51.256;7.152;2022-07-19T05:43:39;20.20;97.00
19544;DHT22;9917;51.256;7.152;2022-07-19T05:46:05;20.40;96.40
19544;DHT22;9917;51.256;7.152;2022-07-19T05:48:31;20.30;96.60
19544;DHT22;9917;51.256;7.152;2022-07-19T05:50:58;20.60;95.60
19544;DHT22;9917;51.256;7.152;2022-07-19T05:53:24;21.10;95.40
19544;DHT22;9917;51.256;7.152;2022-07-19T05:55:51;20.40;96.80
19544;DHT22;9917;51.256;7.152;2022-07-19T05:58:17;20.60;94.90
19544;DHT22;9917;51.256;7.152;2022-07-19T06:00:43;19.70;94.60
19544;DHT22;9917;51.256;7.152;2022-07-19T06:10:28;20.40;94.20
19544;DHT22;9917;51.256;7.152;2022-07-19T06:12:55;21.40;93.50
19544;DHT22;9917;51.256;7.152;2022-07-19T06:15:21;22.30;96.50
19544;DHT22;9917;51.256;7.152;2022-07-19T06:25:06;21.60;94.10
19544;DHT22;9917;51.256;7.152;2022-07-19T06:29:59;22.60;90.00
19544;DHT22;9917;51.256;7.152;2022-07-19T06:32:26;22.80;93.10
19544;DHT22;9917;51.256;7.152;2022-07-19T06:39:44;22.70;90.00
19544;DHT22;9917;51.256;7.152;2022-07-19T06:42:10;23.00;88.40
19544;DHT22;9917;51.256;7.152;2022-07-19T06:47:04;23.20;87.50
19544;DHT22;9917;51.256;7.152;2022-07-19T06:49:30;23.40;91.70
19544;DHT22;9917;51.256;7.152;2022-07-19T07:04:08;24.30;82.10
19544;DHT22;9917;51.256;7.152;2022-07-19T07:11:26;24.50;81.10
19544;DHT22;9917;51.256;7.152;2022-07-19T07:13:52;23.90;86.00
19544;DHT22;9917;51.256;7.152;2022-07-19T07:21:12;25.10;78.30
19544;DHT22;9917;51.256;7.152;2022-07-19T07:26:05;24.80;79.90
19544;DHT22;9917;51.256;7.152;2022-07-19T07:38:17;27.00;60.00
19544;DHT22;9917;51.256;7.152;2022-07-19T07:48:01;27.90;57.60
19544;DHT22;9917;51.256;7.152;2022-07-19T07:52:53;28.40;56.90
19544;DHT22;9917;51.256;7.152;2022-07-19T07:55:20;28.30;56.10
19544;DHT22;9917;51.256;7.152;2022-07-19T08:00:13;29.40;52.20
19544;DHT22;9917;51.256;7.152;2022-07-19T08:05:06;28.10;51.10
19544;DHT22;9917;51.256;7.152;2022-07-19T08:07:32;28.50;49.60
19544;DHT22;9917;51.256;7.152;2022-07-19T08:09:58;29.50;50.10
19544;DHT22;9917;51.256;7.152;2022-07-19T08:12:25;29.20;49.10
19544;DHT22;9917;51.256;7.152;2022-07-19T08:14:51;29.50;49.20
19544;DHT22;9917;51.256;7.152;2022-07-19T08:19:43;29.40;47.90
19544;DHT22;9917;51.256;7.152;2022-07-19T08:22:09;29.80;47.40
19544;DHT22;9917;51.256;7.152;2022-07-19T08:24:35;29.40;47.30
19544;DHT22;9917;51.256;7.152;2022-07-19T08:29:29;30.40;47.50
19544;DHT22;9917;51.256;7.152;2022-07-19T08:31:55;29.50;45.70
19544;DHT22;9917;51.256;7.152;2022-07-19T08:36:47;31.00;45.60
19544;DHT22;9917;51.256;7.152;2022-07-19T08:41:40;32.20;43.80
19544;DHT22;9917;51.256;7.152;2022-07-19T08:44:08;33.00;41.80
19544;DHT22;9917;51.256;7.152;2022-07-19T08:46:36;34.30;40.10
19544;DHT22;9917;51.256;7.152;2022-07-19T08:49:02;36.40;37.50
19544;DHT22;9917;51.256;7.152;2022-07-19T08:51:28;38.00;36.60
19544;DHT22;9917;51.256;7.152;2022-07-19T08:56:21;39.80;34.10
19544;DHT22;9917;51.256;7.152;2022-07-19T09:01:13;41.90;30.00
19544;DHT22;9917;51.256;7.152;2022-07-19T09:04:08;41.50;30.00
19544;DHT22;9917;51.256;7.152;2022-07-19T09:06:39;42.30;29.20
19544;DHT22;9917;51.256;7.152;2022-07-19T09:09:05;42.60;29.80
19544;DHT22;9917;51.256;7.152;2022-07-19T09:11:33;43.00;28.70
19544;DHT22;9917;51.256;7.152;2022-07-19T09:14:04;44.40;27.80
19544;DHT22;9917;51.256;7.152;2022-07-19T09:16:51;44.20;27.90
19544;DHT22;9917;51.256;7.152;2022-07-19T09:19:19;44.80;27.60
19544;DHT22;9917;51.256;7.152;2022-07-19T09:21:57;46.20;25.90
19544;DHT22;9917;51.256;7.152;2022-07-19T09:24:25;46.20;26.40
19544;DHT22;9917;51.256;7.152;2022-07-19T09:26:59;46.40;26.50
19544;DHT22;9917;51.256;7.152;2022-07-19T09:29:26;47.60;25.70
19544;DHT22;9917;51.256;7.152;2022-07-19T09:32:08;49.50;24.10
19544;DHT22;9917;51.256;7.152;2022-07-19T09:34:40;49.60;24.30
19544;DHT22;9917;51.256;7.152;2022-07-19T09:37:09;49.30;24.20
19544;DHT22;9917;51.256;7.152;2022-07-19T09:39:36;48.90;24.30
19544;DHT22;9917;51.256;7.152;2022-07-19T09:42:02;49.60;25.30
19544;DHT22;9917;51.256;7.152;2022-07-19T09:44:28;50.70;23.30
19544;DHT22;9917;51.256;7.152;2022-07-19T09:46:54;51.00;23.20
19544;DHT22;9917;51.256;7.152;2022-07-19T09:49:20;51.40;23.40
19544;DHT22;9917;51.256;7.152;2022-07-19T09:51:49;50.50;22.30
19544;DHT22;9917;51.256;7.152;2022-07-19T09:54:18;50.40;22.60
19544;DHT22;9917;51.256;7.152;2022-07-19T09:56:45;51.00;23.00
19544;DHT22;9917;51.256;7.152;2022-07-19T09:59:12;52.20;23.50
19544;DHT22;9917;51.256;7.152;2022-07-19T10:01:39;52.90;22.90
19544;DHT22;9917;51.256;7.152;2022-07-19T10:04:07;54.40;23.00
19544;DHT22;9917;51.256;7.152;2022-07-19T10:06:34;54.70;21.30
19544;DHT22;9917;51.256;7.152;2022-07-19T10:09:03;54.40;21.60
19544;DHT22;9917;51.256;7.152;2022-07-19T10:11:29;54.30;21.80
19544;DHT22;9917;51.256;7.152;2022-07-19T10:13:56;54.60;21.00
19544;DHT22;9917;51.256;7.152;2022-07-19T10:16:26;53.40;20.30
19544;DHT22;9917;51.256;7.152;2022-07-19T10:19:02;53.40;20.90
19544;DHT22;9917;51.256;7.152;2022-07-19T10:21:29;51.60;21.20
19544;DHT22;9917;51.256;7.152;2022-07-19T10:23:55;50.80;21.00
19544;DHT22;9917;51.256;7.152;2022-07-19T10:26:35;49.90;21.20
19544;DHT22;9917;51.256;7.152;2022-07-19T10:29:08;50.00;21.40
19544;DHT22;9917;51.256;7.152;2022-07-19T10:31:35;50.30;21.70
19544;DHT22;9917;51.256;7.152;2022-07-19T10:34:02;51.40;22.30
19544;DHT22;9917;51.256;7.152;2022-07-19T10:36:37;52.30;21.70
19544;DHT22;9917;51.256;7.152;2022-07-19T10:39:26;52.40;21.70
19544;DHT22;9917;51.256;7.152;2022-07-19T10:42:14;54.00;21.10
19544;DHT22;9917;51.256;7.152;2022-07-19T10:45:08;53.10;20.70
19544;DHT22;9917;51.256;7.152;2022-07-19T10:48:04;51.10;21.50
19544;DHT22;9917;51.256;7.152;2022-07-19T10:50:50;50.90;21.30
19544;DHT22;9917;51.256;7.152;2022-07-19T10:56:20;51.50;21.60
19544;DHT22;9917;51.256;7.152;2022-07-19T10:58:49;51.60;22.00
19544;DHT22;9917;51.256;7.152;2022-07-19T11:01:16;51.20;21.30
19544;DHT22;9917;51.256;7.152;2022-07-19T11:03:42;51.60;21.70
19544;DHT22;9917;51.256;7.152;2022-07-19T11:06:08;52.70;21.80
19544;DHT22;9917;51.256;7.152;2022-07-19T11:08:43;54.30;21.40
19544;DHT22;9917;51.256;7.152;2022-07-19T11:11:11;55.10;20.00
19544;DHT22;9917;51.256;7.152;2022-07-19T11:13:38;55.40;20.60
19544;DHT22;9917;51.256;7.152;2022-07-19T11:16:07;54.40;20.20
19544;DHT22;9917;51.256;7.152;2022-07-19T11:18:33;54.10;20.40
19544;DHT22;9917;51.256;7.152;2022-07-19T11:21:01;55.30;20.80
19544;DHT22;9917;51.256;7.152;2022-07-19T11:23:29;55.30;21.30
19544;DHT22;9917;51.256;7.152;2022-07-19T11:26:05;56.30;20.60
19544;DHT22;9917;51.256;7.152;2022-07-19T11:28:32;54.70;20.50
19544;DHT22;9917;51.256;7.152;2022-07-19T11:30:58;54.30;21.20
19544;DHT22;9917;51.256;7.152;2022-07-19T11:33:25;55.10;20.60
19544;DHT22;9917;51.256;7.152;2022-07-19T11:35:55;55.10;19.40
19544;DHT22;9917;51.256;7.152;2022-07-19T11:38:22;52.60;19.70
19544;DHT22;9917;51.256;7.152;2022-07-19T11:40:48;52.50;20.10
19544;DHT22;9917;51.256;7.152;2022-07-19T11:43:14;52.50;21.20
19544;DHT22;9917;51.256;7.152;2022-07-19T11:45:45;52.80;21.40
19544;DHT22;9917;51.256;7.152;2022-07-19T11:48:11;52.30;19.60
19544;DHT22;9917;51.256;7.152;2022-07-19T11:50:38;52.10;20.30
19544;DHT22;9917;51.256;7.152;2022-07-19T11:53:04;53.10;19.80
19544;DHT22;9917;51.256;7.152;2022-07-19T11:55:36;54.00;19.70
19544;DHT22;9917;51.256;7.152;2022-07-19T11:58:05;55.10;20.50
19544;DHT22;9917;51.256;7.152;2022-07-19T12:00:32;55.20;20.80
19544;DHT22;9917;51.256;7.152;2022-07-19T12:02:59;53.30;19.40
19544;DHT22;9917;51.256;7.152;2022-07-19T12:05:26;51.50;19.90
19544;DHT22;9917;51.256;7.152;2022-07-19T12:07:57;51.20;19.90
19544;DHT22;9917;51.256;7.152;2022-07-19T12:10:37;52.40;20.10
19544;DHT22;9917;51.256;7.152;2022-07-19T12:13:04;53.20;18.90
19544;DHT22;9917;51.256;7.152;2022-07-19T12:15:51;52.80;19.30
19544;DHT22;9917;51.256;7.152;2022-07-19T12:18:19;50.10;19.70
19544;DHT22;9917;51.256;7.152;2022-07-19T12:21:10;49.50;20.30
19544;DHT22;9917;51.256;7.152;2022-07-19T12:23:33;49.50;20.60
19544;DHT22;9917;51.256;7.152;2022-07-19T12:26:02;52.20;20.30
19544;DHT22;9917;51.256;7.152;2022-07-19T12:28:29;52.50;20.80
19544;DHT22;9917;51.256;7.152;2022-07-19T12:31:01;55.30;19.30
19544;DHT22;9917;51.256;7.152;2022-07-19T12:33:27;56.70;19.10
19544;DHT22;9917;51.256;7.152;2022-07-19T12:35:53;57.50;20.00
19544;DHT22;9917;51.256;7.152;2022-07-19T12:38:27;57.40;19.90
19544;DHT22;9917;51.256;7.152;2022-07-19T12:41:04;53.60;19.30
19544;DHT22;9917;51.256;7.152;2022-07-19T12:43:30;51.20;19.70
19544;DHT22;9917;51.256;7.152;2022-07-19T12:45:59;50.50;20.00
19544;DHT22;9917;51.256;7.152;2022-07-19T12:48:25;51.10;20.20
19544;DHT22;9917;51.256;7.152;2022-07-19T12:50:51;51.20;20.30
19544;DHT22;9917;51.256;7.152;2022-07-19T12:53:17;50.20;20.10
19544;DHT22;9917;51.256;7.152;2022-07-19T12:55:44;50.00;20.70
19544;DHT22;9917;51.256;7.152;2022-07-19T12:58:14;49.80;20.90
19544;DHT22;9917;51.256;7.152;2022-07-19T13:00:40;50.20;20.60
19544;DHT22;9917;51.256;7.152;2022-07-19T13:03:07;49.80;20.70
19544;DHT22;9917;51.256;7.152;2022-07-19T13:05:34;49.70;21.50
19544;DHT22;9917;51.256;7.152;2022-07-19T13:08:00;52.20;19.80
19544;DHT22;9917;51.256;7.152;2022-07-19T13:10:28;54.30;20.90
19544;DHT22;9917;51.256;7.152;2022-07-19T13:12:54;55.50;20.70
19544;DHT22;9917;51.256;7.152;2022-07-19T13:15:21;55.80;19.50
19544;DHT22;9917;51.256;7.152;2022-07-19T13:17:47;55.80;20.00
19544;DHT22;9917;51.256;7.152;2022-07-19T13:20:14;54.90;19.60
19544;DHT22;9917;51.256;7.152;2022-07-19T13:22:41;54.80;19.80
19544;DHT22;9917;51.256;7.152;2022-07-19T13:25:08;50.90;20.10
19544;DHT22;9917;51.256;7.152;2022-07-19T13:27:34;49.80;21.20
19544;DHT22;9917;51.256;7.152;2022-07-19T13:32:27;48.10;21.10
19544;DHT22;9917;51.256;7.152;2022-07-19T13:34:53;48.20;21.50
19544;DHT22;9917;51.256;7.152;2022-07-19T13:37:19;50.00;21.70
19544;DHT22;9917;51.256;7.152;2022-07-19T13:39:45;51.20;19.80
19544;DHT22;9917;51.256;7.152;2022-07-19T13:44:37;48.40;21.00
19544;DHT22;9917;51.256;7.152;2022-07-19T13:47:03;47.20;21.20
19544;DHT22;9917;51.256;7.152;2022-07-19T13:49:30;47.30;21.30
19544;DHT22;9917;51.256;7.152;2022-07-19T13:51:56;47.80;21.30
19544;DHT22;9917;51.256;7.152;2022-07-19T13:59:14;46.50;21.90
19544;DHT22;9917;51.256;7.152;2022-07-19T14:04:06;49.60;22.50
19544;DHT22;9917;51.256;7.152;2022-07-19T14:06:33;49.80;20.40
19544;DHT22;9917;51.256;7.152;2022-07-19T14:08:59;49.50;20.80
19544;DHT22;9917;51.256;7.152;2022-07-19T14:11:25;47.90;20.90
19544;DHT22;9917;51.256;7.152;2022-07-19T14:23:37;48.10;21.40
19544;DHT22;9917;51.256;7.152;2022-07-19T14:26:03;49.00;21.30
19544;DHT22;9917;51.256;7.152;2022-07-19T14:28:29;49.30;21.20
19544;DHT22;9917;51.256;7.152;2022-07-19T14:35:47;43.90;22.80
19544;DHT22;9917;51.256;7.152;2022-07-19T14:40:40;39.30;21.10
19544;DHT22;9917;51.256;7.152;2022-07-19T14:43:06;44.00;23.10
19544;DHT22;9917;51.256;7.152;2022-07-19T14:52:51;43.30;23.20
19544;DHT22;9917;51.256;7.152;2022-07-19T14:55:17;44.20;22.70
19544;DHT22;9917;51.256;7.152;2022-07-19T14:57:44;43.90;22.60
19544;DHT22;9917;51.256;7.152;2022-07-19T15:00:11;43.70;23.20
19544;DHT22;9917;51.256;7.152;2022-07-19T15:02:37;43.20;22.80
19544;DHT22;9917;51.256;7.152;2022-07-19T15:05:04;43.00;22.80
19544;DHT22;9917;51.256;7.152;2022-07-19T15:07:30;41.80;23.30
19544;DHT22;9917;51.256;7.152;2022-07-19T15:09:55;40.90;23.70
19544;DHT22;9917;51.256;7.152;2022-07-19T15:14:49;39.60;24.90
19544;DHT22;9917;51.256;7.152;2022-07-19T15:17:15;39.30;24.60
19544;DHT22;9917;51.256;7.152;2022-07-19T15:19:41;38.80;24.50
19544;DHT22;9917;51.256;7.152;2022-07-19T15:22:07;38.70;23.80
19544;DHT22;9917;51.256;7.152;2022-07-19T15:24:32;38.30;24.10
19544;DHT22;9917;51.256;7.152;2022-07-19T15:26:58;38.40;24.80
19544;DHT22;9917;51.256;7.152;2022-07-19T15:29:24;39.50;25.90
19544;DHT22;9917;51.256;7.152;2022-07-19T15:31:51;39.70;25.40
19544;DHT22;9917;51.256;7.152;2022-07-19T15:34:17;39.10;24.00
19544;DHT22;9917;51.256;7.152;2022-07-19T15:36:43;39.20;24.90
19544;DHT22;9917;51.256;7.152;2022-07-19T15:39:09;39.20;25.10
19544;DHT22;9917;51.256;7.152;2022-07-19T15:41:35;39.10;25.00
19544;DHT22;9917;51.256;7.152;2022-07-19T15:44:02;38.90;24.60
19544;DHT22;9917;51.256;7.152;2022-07-19T15:46:29;37.90;24.40
19544;DHT22;9917;51.256;7.152;2022-07-19T15:48:58;38.10;24.50
19544;DHT22;9917;51.256;7.152;2022-07-19T15:51:24;37.60;25.00
19544;DHT22;9917;51.256;7.152;2022-07-19T15:53:49;38.00;25.00
19544;DHT22;9917;51.256;7.152;2022-07-19T15:56:15;37.00;24.80
19544;DHT22;9917;51.256;7.152;2022-07-19T15:58:41;37.20;25.40
19544;DHT22;9917;51.256;7.152;2022-07-19T16:01:07;37.50;25.90
19544;DHT22;9917;51.256;7.152;2022-07-19T16:03:33;37.90;26.90
19544;DHT22;9917;51.256;7.152;2022-07-19T16:06:00;37.60;25.10
19544;DHT22;9917;51.256;7.152;2022-07-19T16:08:26;37.70;25.60
19544;DHT22;9917;51.256;7.152;2022-07-19T16:13:18;37.40;25.30
19544;DHT22;9917;51.256;7.152;2022-07-19T16:15:44;37.20;25.50
19544;DHT22;9917;51.256;7.152;2022-07-19T16:18:10;37.40;27.10
19544;DHT22;9917;51.256;7.152;2022-07-19T16:20:36;37.30;26.80
19544;DHT22;9917;51.256;7.152;2022-07-19T16:23:03;37.10;25.90
19544;DHT22;9917;51.256;7.152;2022-07-19T16:25:29;37.00;26.20
19544;DHT22;9917;51.256;7.152;2022-07-19T16:27:55;37.00;27.60
19544;DHT22;9917;51.256;7.152;2022-07-19T16:30:21;36.60;26.10
19544;DHT22;9917;51.256;7.152;2022-07-19T16:32:47;36.20;26.60
19544;DHT22;9917;51.256;7.152;2022-07-19T16:37:39;36.50;27.00
19544;DHT22;9917;51.256;7.152;2022-07-19T16:40:09;36.70;27.20
19544;DHT22;9917;51.256;7.152;2022-07-19T16:42:35;36.40;27.00
19544;DHT22;9917;51.256;7.152;2022-07-19T16:45:02;36.50;26.80
19544;DHT22;9917;51.256;7.152;2022-07-19T16:47:28;36.70;27.10
19544;DHT22;9917;51.256;7.152;2022-07-19T16:52:20;36.60;27.30
19544;DHT22;9917;51.256;7.152;2022-07-19T16:54:46;36.50;27.40
19544;DHT22;9917;51.256;7.152;2022-07-19T16:57:13;36.40;28.90
19544;DHT22;9917;51.256;7.152;2022-07-19T17:02:05;36.20;26.80
19544;DHT22;9917;51.256;7.152;2022-07-19T17:04:31;36.00;26.50
19544;DHT22;9917;51.256;7.152;2022-07-19T17:06:57;35.90;26.90
19544;DHT22;9917;51.256;7.152;2022-07-19T17:09:23;36.00;26.80
19544;DHT22;9917;51.256;7.152;2022-07-19T17:11:49;35.40;26.60
19544;DHT22;9917;51.256;7.152;2022-07-19T17:14:16;35.80;26.90
19544;DHT22;9917;51.256;7.152;2022-07-19T17:16:43;35.90;27.40
19544;DHT22;9917;51.256;7.152;2022-07-19T17:24:02;35.10;28.00
19544;DHT22;9917;51.256;7.152;2022-07-19T17:26:28;35.40;28.90
19544;DHT22;9917;51.256;7.152;2022-07-19T17:28:54;34.60;26.90
19544;DHT22;9917;51.256;7.152;2022-07-19T17:31:21;34.80;27.30
19544;DHT22;9917;51.256;7.152;2022-07-19T17:41:05;34.40;26.90
19544;DHT22;9917;51.256;7.152;2022-07-19T17:45:57;35.30;28.10
19544;DHT22;9917;51.256;7.152;2022-07-19T17:48:25;34.80;28.20
19544;DHT22;9917;51.256;7.152;2022-07-19T17:53:17;34.80;27.70
19544;DHT22;9917;51.256;7.152;2022-07-19T17:55:43;34.60;28.20
19544;DHT22;9917;51.256;7.152;2022-07-19T17:58:09;34.80;29.30
19544;DHT22;9917;51.256;7.152;2022-07-19T18:00:35;34.20;29.20
19544;DHT22;9917;51.256;7.152;2022-07-19T18:03:01;34.30;28.50
19544;DHT22;9917;51.256;7.152;2022-07-19T18:05:28;34.10;28.30
19544;DHT22;9917;51.256;7.152;2022-07-19T18:10:21;34.00;29.10
19544;DHT22;9917;51.256;7.152;2022-07-19T18:12:47;34.20;28.90
19544;DHT22;9917;51.256;7.152;2022-07-19T18:15:13;33.20;29.00
19544;DHT22;9917;51.256;7.152;2022-07-19T18:17:39;33.30;28.70
19544;DHT22;9917;51.256;7.152;2022-07-19T18:20:06;33.70;30.00
19544;DHT22;9917;51.256;7.152;2022-07-19T18:22:34;33.20;29.20
19544;DHT22;9917;51.256;7.152;2022-07-19T18:24:59;33.50;29.00
19544;DHT22;9917;51.256;7.152;2022-07-19T18:27:25;32.70;29.10
19544;DHT22;9917;51.256;7.152;2022-07-19T18:29:52;33.40;29.60
19544;DHT22;9917;51.256;7.152;2022-07-19T18:32:18;33.30;30.00
19544;DHT22;9917;51.256;7.152;2022-07-19T18:37:10;33.60;30.50
19544;DHT22;9917;51.256;7.152;2022-07-19T18:39:38;33.30;30.70
19544;DHT22;9917;51.256;7.152;2022-07-19T18:42:06;32.90;30.80
19544;DHT22;9917;51.256;7.152;2022-07-19T18:44:32;32.20;30.40
19544;DHT22;9917;51.256;7.152;2022-07-19T18:51:50;31.80;31.30
19544;DHT22;9917;51.256;7.152;2022-07-19T18:54:15;31.70;31.60
19544;DHT22;9917;51.256;7.152;2022-07-19T18:56:43;32.30;32.20
19544;DHT22;9917;51.256;7.152;2022-07-19T19:01:35;31.80;33.50
19544;DHT22;9917;51.256;7.152;2022-07-19T19:08:53;31.60;36.20
19544;DHT22;9917;51.256;7.152;2022-07-19T19:11:19;31.60;36.60
19544;DHT22;9917;51.256;7.152;2022-07-19T19:13:46;31.40;36.70
19544;DHT22;9917;51.256;7.152;2022-07-19T19:16:12;30.60;37.00
19544;DHT22;9917;51.256;7.152;2022-07-19T19:18:38;31.00;37.30
19544;DHT22;9917;51.256;7.152;2022-07-19T19:23:30;31.40;38.10
19544;DHT22;9917;51.256;7.152;2022-07-19T19:30:50;29.90;38.20
19544;DHT22;9917;51.256;7.152;2022-07-19T19:33:16;30.40;38.60
19544;DHT22;9917;51.256;7.152;2022-07-19T19:35:42;30.20;38.50
19544;DHT22;9917;51.256;7.152;2022-07-19T19:38:08;30.10;39.30
19544;DHT22;9917;51.256;7.152;2022-07-19T19:45:26;29.50;39.60
19544;DHT22;9917;51.256;7.152;2022-07-19T19:47:53;29.80;39.60
19544;DHT22;9917;51.256;7.152;2022-07-19T19:52:45;30.20;40.50
19544;DHT22;9917;51.256;7.152;2022-07-19T19:55:11;29.40;39.80
19544;DHT22;9917;51.256;7.152;2022-07-19T19:57:38;29.30;39.80
19544;DHT22;9917;51.256;7.152;2022-07-19T20:00:05;29.70;40.50
19544;DHT22;9917;51.256;7.152;2022-07-19T20:02:31;29.90;41.10
19544;DHT22;9917;51.256;7.152;2022-07-19T20:04:59;29.80;41.20
19544;DHT22;9917;51.256;7.152;2022-07-19T20:07:24;28.90;41.10
19544;DHT22;9917;51.256;7.152;2022-07-19T20:12:16;28.30;40.80
19544;DHT22;9917;51.256;7.152;2022-07-19T20:14:42;28.00;41.00
19544;DHT22;9917;51.256;7.152;2022-07-19T20:22:02;27.70;41.90
19544;DHT22;9917;51.256;7.152;2022-07-19T20:34:13;27.70;42.50
19544;DHT22;9917;51.256;7.152;2022-07-19T20:39:06;28.60;42.90
19544;DHT22;9917;51.256;7.152;2022-07-19T20:48:50;27.40;43.10
19544;DHT22;9917;51.256;7.152;2022-07-19T20:53:42;28.20;43.90
19544;DHT22;9917;51.256;7.152;2022-07-19T20:56:10;27.40;43.20
19544;DHT22;9917;51.256;7.152;2022-07-19T20:58:36;26.80;43.50
19544;DHT22;9917;51.256;7.152;2022-07-19T21:01:02;28.00;44.40
19544;DHT22;9917;51.256;7.152;2022-07-19T21:05:54;27.10;44.10
19544;DHT22;9917;51.256;7.152;2022-07-19T21:08:20;27.60;44.50
19544;DHT22;9917;51.256;7.152;2022-07-19T21:10:45;27.00;44.40
19544;DHT22;9917;51.256;7.152;2022-07-19T21:13:13;26.90;44.50
19544;DHT22;9917;51.256;7.152;2022-07-19T21:15:39;26.90;44.60
19544;DHT22;9917;51.256;7.152;2022-07-19T21:18:04;27.40;44.90
19544;DHT22;9917;51.256;7.152;2022-07-19T21:20:30;26.20;44.40
19544;DHT22;9917;51.256;7.152;2022-07-19T21:22:56;27.40;45.40
19544;DHT22;9917;51.256;7.152;2022-07-19T21:25:22;26.10;44.40
19544;DHT22;9917;51.256;7.152;2022-07-19T21:30:16;26.60;44.60
19544;DHT22;9917;51.256;7.152;2022-07-19T21:35:08;26.90;45.60
19544;DHT22;9917;51.256;7.152;2022-07-19T21:40:00;26.90;45.90
19544;DHT22;9917;51.256;7.152;2022-07-19T21:47:20;26.10;46.00
19544;DHT22;9917;51.256;7.152;2022-07-19T21:57:04;26.90;47.20
19544;DHT22;9917;51.256;7.152;2022-07-19T21:59:30;26.10;46.50